sensor_id;sensor_type;location;lat;lon;timestamp;temperature;humidity
34135;DHT22;20410;55.578;12.968;2022-08-11T00:00:44;18.40;99.90
34135;DHT22;20410;55.578;12.968;2022-08-11T00:03:13;18.30;99.90
34135;DHT22;20410;55.578;12.968;2022-08-11T00:05:49;18.30;99.90
34135;DHT22;20410;55.578;12.968;2022-08-11T00:08:23;18.30;99.90
34135;DHT22;20410;55.578;12.968;2022-08-11T00:10:55;18.30;99.90
34135;DHT22;20410;55.578;12.968;2022-08-11T00:13:22;18.30;99.90
34135;DHT22;20410;55.578;12.968;2022-08-11T00:15:55;18.20;99.90
34135;DHT22;20410;55.578;12.968;2022-08-11T00:18:21;18.20;99.90
34135;DHT22;20410;55.578;12.968;2022-08-11T00:20:47;18.20;99.90
34135;DHT22;20410;55.578;12.968;2022-08-11T00:23:18;18.20;99.90
34135;DHT22;20410;55.578;12.968;2022-08-11T00:25:49;18.20;99.90
34135;DHT22;20410;55.578;12.968;2022-08-11T00:28:33;18.20;99.90
34135;DHT22;20410;55.578;12.968;2022-08-11T00:31:03;18.20;99.90
34135;DHT22;20410;55.578;12.968;2022-08-11T00:33:45;18.10;99.90
34135;DHT22;20410;55.578;12.968;2022-08-11T00:36:15;18.10;99.90
34135;DHT22;20410;55.578;12.968;2022-08-11T00:38:43;18.10;99.90
34135;DHT22;20410;55.578;12.968;2022-08-11T00:41:30;18.10;99.90
34135;DHT22;20410;55.578;12.968;2022-08-11T00:52:35;18.00;99.90
34135;DHT22;20410;55.578;12.968;2022-08-11T01:12:38;17.80;99.90
34135;DHT22;20410;55.578;12.968;2022-08-11T01:21:31;17.70;99.90
34135;DHT22;20410;55.578;12.968;2022-08-11T01:24:29;17.70;99.90
34135;DHT22;20410;55.578;12.968;2022-08-11T01:35:33;17.60;99.90
34135;DHT22;20410;55.578;12.968;2022-08-11T01:38:45;17.60;99.90
34135;DHT22;20410;55.578;12.968;2022-08-11T01:46:51;17.50;99.90
34135;DHT22;20410;55.578;12.968;2022-08-11T01:49:35;17.50;99.90
34135;DHT22;20410;55.578;12.968;2022-08-11T01:52:24;17.50;99.90
34135;DHT22;20410;55.578;12.968;2022-08-11T01:55:02;17.50;99.90
34135;DHT22;20410;55.578;12.968;2022-08-11T01:57:52;17.50;99.90
34135;DHT22;20410;55.578;12.968;2022-08-11T02:00:20;17.50;99.90
34135;DHT22;20410;55.578;12.968;2022-08-11T02:02:52;17.50;99.90
34135;DHT22;20410;55.578;12.968;2022-08-11T02:08:41;17.50;99.90
34135;DHT22;20410;55.578;12.968;2022-08-11T02:11:27;17.40;99.90
34135;DHT22;20410;55.578;12.968;2022-08-11T02:14:06;17.30;99.90
34135;DHT22;20410;55.578;12.968;2022-08-11T02:19:46;17.20;99.90
34135;DHT22;20410;55.578;12.968;2022-08-11T02:22:45;17.10;99.90
34135;DHT22;20410;55.578;12.968;2022-08-11T02:26:02;17.10;99.90
34135;DHT22;20410;55.578;12.968;2022-08-11T02:31:19;17.00;99.90
34135;DHT22;20410;55.578;12.968;2022-08-11T02:37:13;16.80;99.90
34135;DHT22;20410;55.578;12.968;2022-08-11T02:42:29;16.60;99.90
34135;DHT22;20410;55.578;12.968;2022-08-11T02:48:00;16.60;99.90
34135;DHT22;20410;55.578;12.968;2022-08-11T02:50:55;16.70;99.90
34135;DHT22;20410;55.578;12.968;2022-08-11T03:10:12;16.50;99.90
34135;DHT22;20410;55.578;12.968;2022-08-11T03:13:07;16.50;99.90
34135;DHT22;20410;55.578;12.968;2022-08-11T03:16:07;16.50;99.90
34135;DHT22;20410;55.578;12.968;2022-08-11T03:19:25;16.40;99.90
34135;DHT22;20410;55.578;12.968;2022-08-11T03:22:22;16.40;99.90
34135;DHT22;20410;55.578;12.968;2022-08-11T03:25:07;16.40;99.90
34135;DHT22;20410;55.578;12.968;2022-08-11T03:27:38;16.30;99.90
34135;DHT22;20410;55.578;12.968;2022-08-11T03:30:18;16.30;99.90
34135;DHT22;20410;55.578;12.968;2022-08-11T03:44:31;16.50;99.90
34135;DHT22;20410;55.578;12.968;2022-08-11T03:47:11;16.60;99.90
34135;DHT22;20410;55.578;12.968;2022-08-11T03:58:17;16.60;99.90
34135;DHT22;20410;55.578;12.968;2022-08-11T04:01:19;16.50;99.90
34135;DHT22;20410;55.578;12.968;2022-08-11T04:07:18;16.60;99.90
34135;DHT22;20410;55.578;12.968;2022-08-11T04:13:27;16.70;99.90
34135;DHT22;20410;55.578;12.968;2022-08-11T04:16:15;16.80;99.90
34135;DHT22;20410;55.578;12.968;2022-08-11T04:30:00;17.10;99.90
34135;DHT22;20410;55.578;12.968;2022-08-11T04:40:49;17.40;99.90
34135;DHT22;20410;55.578;12.968;2022-08-11T04:49:34;17.60;99.90
34135;DHT22;20410;55.578;12.968;2022-08-11T05:07:34;18.30;99.90
34135;DHT22;20410;55.578;12.968;2022-08-11T05:13:02;18.60;99.90
34135;DHT22;20410;55.578;12.968;2022-08-11T05:15:54;18.70;99.90
34135;DHT22;20410;55.578;12.968;2022-08-11T05:18:50;18.80;99.90
34135;DHT22;20410;55.578;12.968;2022-08-11T05:21:36;18.90;99.90
34135;DHT22;20410;55.578;12.968;2022-08-11T05:24:42;18.90;99.90
34135;DHT22;20410;55.578;12.968;2022-08-11T05:27:34;19.00;99.90
34135;DHT22;20410;55.578;12.968;2022-08-11T05:30:19;19.10;99.90
34135;DHT22;20410;55.578;12.968;2022-08-11T05:33:13;19.10;99.90
34135;DHT22;20410;55.578;12.968;2022-08-11T05:38:57;19.20;99.90
34135;DHT22;20410;55.578;12.968;2022-08-11T05:41:42;19.30;99.90
34135;DHT22;20410;55.578;12.968;2022-08-11T05:44:28;19.40;99.90
34135;DHT22;20410;55.578;12.968;2022-08-11T05:47:26;19.50;99.90
34135;DHT22;20410;55.578;12.968;2022-08-11T05:50:12;19.60;99.90
34135;DHT22;20410;55.578;12.968;2022-08-11T05:52:57;19.70;99.90
34135;DHT22;20410;55.578;12.968;2022-08-11T05:55:43;19.70;99.90
34135;DHT22;20410;55.578;12.968;2022-08-11T05:58:35;19.80;99.90
34135;DHT22;20410;55.578;12.968;2022-08-11T06:01:01;20.00;99.90
34135;DHT22;20410;55.578;12.968;2022-08-11T06:03:29;20.10;99.90
34135;DHT22;20410;55.578;12.968;2022-08-11T06:05:56;20.20;99.90
34135;DHT22;20410;55.578;12.968;2022-08-11T06:08:29;20.20;99.90
34135;DHT22;20410;55.578;12.968;2022-08-11T06:11:03;20.30;99.90
34135;DHT22;20410;55.578;12.968;2022-08-11T06:13:29;20.40;99.90
34135;DHT22;20410;55.578;12.968;2022-08-11T06:15:56;20.50;99.90
34135;DHT22;20410;55.578;12.968;2022-08-11T06:18:23;20.50;99.90
34135;DHT22;20410;55.578;12.968;2022-08-11T06:20:51;20.60;99.90
34135;DHT22;20410;55.578;12.968;2022-08-11T06:23:20;20.80;99.90
34135;DHT22;20410;55.578;12.968;2022-08-11T06:25:50;20.80;99.90
34135;DHT22;20410;55.578;12.968;2022-08-11T06:28:16;21.00;99.90
34135;DHT22;20410;55.578;12.968;2022-08-11T06:30:47;21.00;99.90
34135;DHT22;20410;55.578;12.968;2022-08-11T06:33:27;21.10;99.90
34135;DHT22;20410;55.578;12.968;2022-08-11T06:41:24;21.30;99.90
34135;DHT22;20410;55.578;12.968;2022-08-11T06:44:02;21.50;99.90
34135;DHT22;20410;55.578;12.968;2022-08-11T06:46:36;21.50;99.90
34135;DHT22;20410;55.578;12.968;2022-08-11T06:49:10;21.70;99.90
34135;DHT22;20410;55.578;12.968;2022-08-11T06:52:02;21.70;99.90
34135;DHT22;20410;55.578;12.968;2022-08-11T06:54:31;21.80;99.90
34135;DHT22;20410;55.578;12.968;2022-08-11T06:56:59;21.90;99.90
34135;DHT22;20410;55.578;12.968;2022-08-11T06:59:44;22.00;99.90
34135;DHT22;20410;55.578;12.968;2022-08-11T07:05:22;22.10;99.90
34135;DHT22;20410;55.578;12.968;2022-08-11T07:14:03;22.40;99.90
34135;DHT22;20410;55.578;12.968;2022-08-11T07:16:49;22.50;99.90
34135;DHT22;20410;55.578;12.968;2022-08-11T07:19:27;22.60;99.90
34135;DHT22;20410;55.578;12.968;2022-08-11T07:22:12;22.70;99.90
34135;DHT22;20410;55.578;12.968;2022-08-11T07:25:00;22.70;99.90
34135;DHT22;20410;55.578;12.968;2022-08-11T07:27:51;22.80;99.90
34135;DHT22;20410;55.578;12.968;2022-08-11T07:30:41;23.00;99.90
34135;DHT22;20410;55.578;12.968;2022-08-11T07:33:08;23.10;99.90
34135;DHT22;20410;55.578;12.968;2022-08-11T07:35:44;23.20;99.90
34135;DHT22;20410;55.578;12.968;2022-08-11T07:38:17;23.30;99.90
34135;DHT22;20410;55.578;12.968;2022-08-11T07:40:45;23.40;99.90
34135;DHT22;20410;55.578;12.968;2022-08-11T07:43:12;23.40;99.90
34135;DHT22;20410;55.578;12.968;2022-08-11T07:45:44;23.40;99.90
34135;DHT22;20410;55.578;12.968;2022-08-11T07:48:30;23.30;99.90
34135;DHT22;20410;55.578;12.968;2022-08-11T07:51:19;23.30;99.90
34135;DHT22;20410;55.578;12.968;2022-08-11T07:54:04;23.50;99.90
34135;DHT22;20410;55.578;12.968;2022-08-11T07:56:34;23.50;99.90
34135;DHT22;20410;55.578;12.968;2022-08-11T07:59:02;23.50;99.90
34135;DHT22;20410;55.578;12.968;2022-08-11T08:01:46;23.40;99.90
34135;DHT22;20410;55.578;12.968;2022-08-11T08:04:32;23.60;99.90
34135;DHT22;20410;55.578;12.968;2022-08-11T08:07:19;23.80;99.90
34135;DHT22;20410;55.578;12.968;2022-08-11T08:10:06;23.90;99.90
34135;DHT22;20410;55.578;12.968;2022-08-11T08:12:53;24.00;99.90
34135;DHT22;20410;55.578;12.968;2022-08-11T08:15:38;24.20;99.90
34135;DHT22;20410;55.578;12.968;2022-08-11T08:18:23;24.50;99.90
34135;DHT22;20410;55.578;12.968;2022-08-11T08:20:50;24.70;99.90
34135;DHT22;20410;55.578;12.968;2022-08-11T08:23:17;24.60;99.90
34135;DHT22;20410;55.578;12.968;2022-08-11T08:25:58;24.60;99.90
34135;DHT22;20410;55.578;12.968;2022-08-11T08:28:27;24.80;99.90
34135;DHT22;20410;55.578;12.968;2022-08-11T08:30:54;24.80;99.90
34135;DHT22;20410;55.578;12.968;2022-08-11T08:33:29;24.80;99.90
34135;DHT22;20410;55.578;12.968;2022-08-11T08:36:03;25.00;99.90
34135;DHT22;20410;55.578;12.968;2022-08-11T08:38:48;25.40;99.90
34135;DHT22;20410;55.578;12.968;2022-08-11T08:41:19;25.70;99.90
34135;DHT22;20410;55.578;12.968;2022-08-11T08:43:50;25.80;99.90
34135;DHT22;20410;55.578;12.968;2022-08-11T08:46:19;25.90;99.90
34135;DHT22;20410;55.578;12.968;2022-08-11T08:48:47;26.00;99.90
34135;DHT22;20410;55.578;12.968;2022-08-11T08:51:13;26.20;99.90
34135;DHT22;20410;55.578;12.968;2022-08-11T08:54:04;26.30;99.90
34135;DHT22;20410;55.578;12.968;2022-08-11T08:56:30;26.50;99.90
34135;DHT22;20410;55.578;12.968;2022-08-11T08:59:00;26.30;99.90
34135;DHT22;20410;55.578;12.968;2022-08-11T09:01:34;26.50;99.90
34135;DHT22;20410;55.578;12.968;2022-08-11T09:04:02;26.70;99.90
34135;DHT22;20410;55.578;12.968;2022-08-11T09:06:31;26.70;99.90
34135;DHT22;20410;55.578;12.968;2022-08-11T09:08:58;26.70;99.90
34135;DHT22;20410;55.578;12.968;2022-08-11T09:11:24;26.70;99.90
34135;DHT22;20410;55.578;12.968;2022-08-11T09:14:09;27.10;99.90
34135;DHT22;20410;55.578;12.968;2022-08-11T09:16:36;27.30;99.90
34135;DHT22;20410;55.578;12.968;2022-08-11T09:19:03;27.50;99.90
34135;DHT22;20410;55.578;12.968;2022-08-11T09:21:30;27.50;99.90
34135;DHT22;20410;55.578;12.968;2022-08-11T09:23:57;27.40;99.90
34135;DHT22;20410;55.578;12.968;2022-08-11T09:26:43;27.10;99.90
34135;DHT22;20410;55.578;12.968;2022-08-11T09:29:25;27.00;99.90
34135;DHT22;20410;55.578;12.968;2022-08-11T09:31:59;27.20;99.90
34135;DHT22;20410;55.578;12.968;2022-08-11T09:34:25;27.50;99.90
34135;DHT22;20410;55.578;12.968;2022-08-11T09:36:52;27.70;99.90
34135;DHT22;20410;55.578;12.968;2022-08-11T09:39:38;27.90;99.90
34135;DHT22;20410;55.578;12.968;2022-08-11T09:42:24;28.10;96.00
34135;DHT22;20410;55.578;12.968;2022-08-11T09:45:13;27.60;99.70
34135;DHT22;20410;55.578;12.968;2022-08-11T09:47:39;27.60;99.70
34135;DHT22;20410;55.578;12.968;2022-08-11T09:50:06;27.60;99.90
34135;DHT22;20410;55.578;12.968;2022-08-11T09:52:38;27.80;99.90
34135;DHT22;20410;55.578;12.968;2022-08-11T09:55:06;28.00;97.70
34135;DHT22;20410;55.578;12.968;2022-08-11T09:57:38;28.20;95.70
34135;DHT22;20410;55.578;12.968;2022-08-11T10:00:34;28.30;93.90
34135;DHT22;20410;55.578;12.968;2022-08-11T10:05:37;28.50;96.50
34135;DHT22;20410;55.578;12.968;2022-08-11T10:08:27;28.50;92.30
34135;DHT22;20410;55.578;12.968;2022-08-11T10:10:54;28.20;93.50
34135;DHT22;20410;55.578;12.968;2022-08-11T10:13:21;28.00;95.80
34135;DHT22;20410;55.578;12.968;2022-08-11T10:15:57;28.00;95.40
34135;DHT22;20410;55.578;12.968;2022-08-11T10:18:40;28.10;96.00
34135;DHT22;20410;55.578;12.968;2022-08-11T10:24:31;28.30;91.00
34135;DHT22;20410;55.578;12.968;2022-08-11T10:27:16;28.20;94.90
34135;DHT22;20410;55.578;12.968;2022-08-11T10:29:42;28.30;93.90
34135;DHT22;20410;55.578;12.968;2022-08-11T10:32:28;28.60;89.40
34135;DHT22;20410;55.578;12.968;2022-08-11T10:35:16;28.40;88.30
34135;DHT22;20410;55.578;12.968;2022-08-11T10:37:45;28.10;94.60
34135;DHT22;20410;55.578;12.968;2022-08-11T10:40:16;27.90;94.40
34135;DHT22;20410;55.578;12.968;2022-08-11T10:42:43;27.60;95.90
34135;DHT22;20410;55.578;12.968;2022-08-11T10:45:33;27.70;96.80
34135;DHT22;20410;55.578;12.968;2022-08-11T10:48:23;28.10;91.60
34135;DHT22;20410;55.578;12.968;2022-08-11T10:50:50;28.20;90.30
34135;DHT22;20410;55.578;12.968;2022-08-11T10:53:36;28.10;90.60
34135;DHT22;20410;55.578;12.968;2022-08-11T10:56:21;28.20;96.30
34135;DHT22;20410;55.578;12.968;2022-08-11T10:59:07;28.40;88.60
34135;DHT22;20410;55.578;12.968;2022-08-11T11:01:37;28.50;92.90
34135;DHT22;20410;55.578;12.968;2022-08-11T11:04:16;28.80;91.00
34135;DHT22;20410;55.578;12.968;2022-08-11T11:10:03;29.10;71.70
34135;DHT22;20410;55.578;12.968;2022-08-11T11:12:43;29.30;78.70
34135;DHT22;20410;55.578;12.968;2022-08-11T11:15:30;29.30;76.90
34135;DHT22;20410;55.578;12.968;2022-08-11T11:18:28;29.40;79.00
34135;DHT22;20410;55.578;12.968;2022-08-11T11:21:10;29.50;76.30
34135;DHT22;20410;55.578;12.968;2022-08-11T11:26:40;29.40;74.90
34135;DHT22;20410;55.578;12.968;2022-08-11T11:29:23;29.00;74.20
34135;DHT22;20410;55.578;12.968;2022-08-11T11:32:17;28.50;81.90
34135;DHT22;20410;55.578;12.968;2022-08-11T11:35:12;28.40;94.40
34135;DHT22;20410;55.578;12.968;2022-08-11T11:37:44;28.60;88.30
34135;DHT22;20410;55.578;12.968;2022-08-11T11:40:12;28.60;80.80
34135;DHT22;20410;55.578;12.968;2022-08-11T11:42:41;28.70;77.70
34135;DHT22;20410;55.578;12.968;2022-08-11T11:45:09;28.80;82.50
34135;DHT22;20410;55.578;12.968;2022-08-11T11:47:36;28.90;65.30
34135;DHT22;20410;55.578;12.968;2022-08-11T11:50:04;28.90;78.10
34135;DHT22;20410;55.578;12.968;2022-08-11T11:52:30;29.10;73.70
34135;DHT22;20410;55.578;12.968;2022-08-11T11:54:57;29.00;69.50
34135;DHT22;20410;55.578;12.968;2022-08-11T11:57:24;28.80;74.40
34135;DHT22;20410;55.578;12.968;2022-08-11T12:00:10;29.00;73.40
34135;DHT22;20410;55.578;12.968;2022-08-11T12:02:58;29.10;77.10
34135;DHT22;20410;55.578;12.968;2022-08-11T12:05:25;29.10;68.70
34135;DHT22;20410;55.578;12.968;2022-08-11T12:07:53;29.10;70.80
34135;DHT22;20410;55.578;12.968;2022-08-11T12:11:00;29.30;70.30
34135;DHT22;20410;55.578;12.968;2022-08-11T12:13:46;29.50;66.90
34135;DHT22;20410;55.578;12.968;2022-08-11T12:16:16;29.30;56.70
34135;DHT22;20410;55.578;12.968;2022-08-11T12:18:45;28.80;66.10
34135;DHT22;20410;55.578;12.968;2022-08-11T12:21:13;28.50;66.20
34135;DHT22;20410;55.578;12.968;2022-08-11T12:23:41;28.30;65.20
34135;DHT22;20410;55.578;12.968;2022-08-11T12:26:27;28.10;75.70
34135;DHT22;20410;55.578;12.968;2022-08-11T12:29:12;28.00;86.40
34135;DHT22;20410;55.578;12.968;2022-08-11T12:31:39;28.30;82.00
34135;DHT22;20410;55.578;12.968;2022-08-11T12:34:09;28.50;72.00
34135;DHT22;20410;55.578;12.968;2022-08-11T12:36:51;28.70;62.00
34135;DHT22;20410;55.578;12.968;2022-08-11T12:39:22;29.00;82.70
34135;DHT22;20410;55.578;12.968;2022-08-11T12:42:09;29.10;64.90
34135;DHT22;20410;55.578;12.968;2022-08-11T12:44:56;29.30;65.80
34135;DHT22;20410;55.578;12.968;2022-08-11T12:47:45;29.30;84.40
34135;DHT22;20410;55.578;12.968;2022-08-11T12:50:41;29.50;76.50
34135;DHT22;20410;55.578;12.968;2022-08-11T12:53:27;29.40;67.30
34135;DHT22;20410;55.578;12.968;2022-08-11T12:56:02;29.30;82.10
34135;DHT22;20410;55.578;12.968;2022-08-11T12:58:48;29.50;68.50
34135;DHT22;20410;55.578;12.968;2022-08-11T13:01:15;29.40;78.50
34135;DHT22;20410;55.578;12.968;2022-08-11T13:04:00;29.30;70.90
34135;DHT22;20410;55.578;12.968;2022-08-11T13:06:47;29.30;66.30
34135;DHT22;20410;55.578;12.968;2022-08-11T13:09:13;29.20;71.30
34135;DHT22;20410;55.578;12.968;2022-08-11T13:11:39;29.30;80.60
34135;DHT22;20410;55.578;12.968;2022-08-11T13:14:25;29.50;91.70
34135;DHT22;20410;55.578;12.968;2022-08-11T13:16:52;29.70;74.50
34135;DHT22;20410;55.578;12.968;2022-08-11T13:19:36;29.80;77.70
34135;DHT22;20410;55.578;12.968;2022-08-11T13:22:02;29.90;75.80
34135;DHT22;20410;55.578;12.968;2022-08-11T13:24:30;30.00;70.90
34135;DHT22;20410;55.578;12.968;2022-08-11T13:26:59;29.90;68.30
34135;DHT22;20410;55.578;12.968;2022-08-11T13:29:26;29.80;59.40
34135;DHT22;20410;55.578;12.968;2022-08-11T13:31:55;29.70;71.00
34135;DHT22;20410;55.578;12.968;2022-08-11T13:34:24;29.50;61.10
34135;DHT22;20410;55.578;12.968;2022-08-11T13:36:53;29.30;75.80
34135;DHT22;20410;55.578;12.968;2022-08-11T13:39:21;29.40;74.30
34135;DHT22;20410;55.578;12.968;2022-08-11T13:41:48;29.60;79.50
34135;DHT22;20410;55.578;12.968;2022-08-11T13:44:16;29.80;85.40
34135;DHT22;20410;55.578;12.968;2022-08-11T13:46:42;29.80;76.70
34135;DHT22;20410;55.578;12.968;2022-08-11T13:49:09;29.90;73.50
34135;DHT22;20410;55.578;12.968;2022-08-11T13:51:36;30.10;81.20
34135;DHT22;20410;55.578;12.968;2022-08-11T13:54:08;30.10;61.20
34135;DHT22;20410;55.578;12.968;2022-08-11T13:56:36;30.00;62.10
34135;DHT22;20410;55.578;12.968;2022-08-11T13:59:06;29.80;63.30
34135;DHT22;20410;55.578;12.968;2022-08-11T14:01:38;29.90;72.40
34135;DHT22;20410;55.578;12.968;2022-08-11T14:04:09;29.90;61.80
34135;DHT22;20410;55.578;12.968;2022-08-11T14:06:38;29.60;57.50
34135;DHT22;20410;55.578;12.968;2022-08-11T14:09:07;29.20;67.40
34135;DHT22;20410;55.578;12.968;2022-08-11T14:11:34;29.20;86.00
34135;DHT22;20410;55.578;12.968;2022-08-11T14:14:25;29.40;78.70
34135;DHT22;20410;55.578;12.968;2022-08-11T14:16:54;29.30;76.70
34135;DHT22;20410;55.578;12.968;2022-08-11T14:19:23;29.40;78.00
34135;DHT22;20410;55.578;12.968;2022-08-11T14:21:50;29.60;69.80
34135;DHT22;20410;55.578;12.968;2022-08-11T14:24:38;29.80;76.70
34135;DHT22;20410;55.578;12.968;2022-08-11T14:27:09;30.00;69.00
34135;DHT22;20410;55.578;12.968;2022-08-11T14:29:38;29.90;61.60
34135;DHT22;20410;55.578;12.968;2022-08-11T14:32:08;29.60;66.90
34135;DHT22;20410;55.578;12.968;2022-08-11T14:34:35;29.40;78.90
34135;DHT22;20410;55.578;12.968;2022-08-11T14:37:06;29.20;82.90
34135;DHT22;20410;55.578;12.968;2022-08-11T14:39:36;29.00;88.50
34135;DHT22;20410;55.578;12.968;2022-08-11T14:42:04;28.90;91.40
34135;DHT22;20410;55.578;12.968;2022-08-11T14:44:52;28.90;91.70
34135;DHT22;20410;55.578;12.968;2022-08-11T14:47:40;29.00;90.60
34135;DHT22;20410;55.578;12.968;2022-08-11T14:50:11;28.90;87.30
34135;DHT22;20410;55.578;12.968;2022-08-11T14:52:58;28.80;89.00
34135;DHT22;20410;55.578;12.968;2022-08-11T14:55:26;29.00;83.50
34135;DHT22;20410;55.578;12.968;2022-08-11T14:58:20;28.90;81.10
34135;DHT22;20410;55.578;12.968;2022-08-11T15:00:48;28.80;85.50
34135;DHT22;20410;55.578;12.968;2022-08-11T15:03:16;28.70;91.00
34135;DHT22;20410;55.578;12.968;2022-08-11T15:06:01;28.60;87.40
34135;DHT22;20410;55.578;12.968;2022-08-11T15:08:32;28.70;91.20
34135;DHT22;20410;55.578;12.968;2022-08-11T15:11:18;28.80;87.20
34135;DHT22;20410;55.578;12.968;2022-08-11T15:14:06;28.80;82.10
34135;DHT22;20410;55.578;12.968;2022-08-11T15:16:35;28.90;87.50
34135;DHT22;20410;55.578;12.968;2022-08-11T15:19:20;28.90;90.60
34135;DHT22;20410;55.578;12.968;2022-08-11T15:21:46;28.80;90.50
34135;DHT22;20410;55.578;12.968;2022-08-11T15:24:32;28.90;93.70
34135;DHT22;20410;55.578;12.968;2022-08-11T15:27:00;28.90;93.50
34135;DHT22;20410;55.578;12.968;2022-08-11T15:29:47;28.80;95.90
34135;DHT22;20410;55.578;12.968;2022-08-11T15:32:34;28.70;95.70
34135;DHT22;20410;55.578;12.968;2022-08-11T15:35:28;28.60;97.70
34135;DHT22;20410;55.578;12.968;2022-08-11T15:38:13;28.50;96.80
34135;DHT22;20410;55.578;12.968;2022-08-11T15:40:40;28.50;99.20
34135;DHT22;20410;55.578;12.968;2022-08-11T15:43:28;28.50;99.10
34135;DHT22;20410;55.578;12.968;2022-08-11T15:46:18;28.50;99.90
34135;DHT22;20410;55.578;12.968;2022-08-11T15:48:47;28.40;99.90
34135;DHT22;20410;55.578;12.968;2022-08-11T15:51:32;28.30;99.90
34135;DHT22;20410;55.578;12.968;2022-08-11T15:54:01;28.20;99.90
34135;DHT22;20410;55.578;12.968;2022-08-11T15:56:29;28.20;99.90
34135;DHT22;20410;55.578;12.968;2022-08-11T15:58:57;28.20;99.90
34135;DHT22;20410;55.578;12.968;2022-08-11T16:01:43;28.10;99.90
34135;DHT22;20410;55.578;12.968;2022-08-11T16:04:29;28.10;99.90
34135;DHT22;20410;55.578;12.968;2022-08-11T16:07:16;27.90;99.40
34135;DHT22;20410;55.578;12.968;2022-08-11T16:09:49;27.90;99.90
34135;DHT22;20410;55.578;12.968;2022-08-11T16:12:19;27.80;99.90
34135;DHT22;20410;55.578;12.968;2022-08-11T16:14:49;27.80;99.90
34135;DHT22;20410;55.578;12.968;2022-08-11T16:17:43;27.70;99.90
34135;DHT22;20410;55.578;12.968;2022-08-11T16:20:14;27.70;99.90
34135;DHT22;20410;55.578;12.968;2022-08-11T16:22:43;27.70;99.90
34135;DHT22;20410;55.578;12.968;2022-08-11T16:25:14;27.60;99.90
34135;DHT22;20410;55.578;12.968;2022-08-11T16:27:44;27.60;99.90
34135;DHT22;20410;55.578;12.968;2022-08-11T16:30:12;27.60;99.90
34135;DHT22;20410;55.578;12.968;2022-08-11T16:32:42;27.50;98.40
34135;DHT22;20410;55.578;12.968;2022-08-11T16:35:11;27.50;99.90
34135;DHT22;20410;55.578;12.968;2022-08-11T16:37:56;27.50;98.90
34135;DHT22;20410;55.578;12.968;2022-08-11T16:40:42;27.50;99.90
34135;DHT22;20410;55.578;12.968;2022-08-11T16:43:12;27.40;99.90
34135;DHT22;20410;55.578;12.968;2022-08-11T16:45:58;27.20;99.90
34135;DHT22;20410;55.578;12.968;2022-08-11T16:48:47;27.00;99.90
34135;DHT22;20410;55.578;12.968;2022-08-11T16:51:13;27.00;99.90
34135;DHT22;20410;55.578;12.968;2022-08-11T16:53:41;26.90;99.90
34135;DHT22;20410;55.578;12.968;2022-08-11T16:56:10;26.90;99.90
34135;DHT22;20410;55.578;12.968;2022-08-11T16:58:38;26.90;99.90
34135;DHT22;20410;55.578;12.968;2022-08-11T17:01:24;26.80;99.90
34135;DHT22;20410;55.578;12.968;2022-08-11T17:03:55;26.80;99.90
34135;DHT22;20410;55.578;12.968;2022-08-11T17:06:44;26.70;99.90
34135;DHT22;20410;55.578;12.968;2022-08-11T17:09:31;26.70;99.90
34135;DHT22;20410;55.578;12.968;2022-08-11T17:12:20;26.70;99.90
34135;DHT22;20410;55.578;12.968;2022-08-11T17:15:10;26.50;99.90
34135;DHT22;20410;55.578;12.968;2022-08-11T17:17:58;26.50;99.90
34135;DHT22;20410;55.578;12.968;2022-08-11T17:20:26;26.30;99.90
34135;DHT22;20410;55.578;12.968;2022-08-11T17:22:54;26.30;99.90
34135;DHT22;20410;55.578;12.968;2022-08-11T17:25:39;26.30;99.90
34135;DHT22;20410;55.578;12.968;2022-08-11T17:28:05;26.30;99.90
34135;DHT22;20410;55.578;12.968;2022-08-11T17:30:33;26.20;99.90
34135;DHT22;20410;55.578;12.968;2022-08-11T17:33:18;26.10;99.90
34135;DHT22;20410;55.578;12.968;2022-08-11T17:36:04;26.00;99.90
34135;DHT22;20410;55.578;12.968;2022-08-11T17:38:31;26.00;99.90
34135;DHT22;20410;55.578;12.968;2022-08-11T17:41:00;26.00;99.90
34135;DHT22;20410;55.578;12.968;2022-08-11T17:43:46;25.80;99.90
34135;DHT22;20410;55.578;12.968;2022-08-11T17:46:31;25.70;99.90
34135;DHT22;20410;55.578;12.968;2022-08-11T17:49:18;25.60;99.90
34135;DHT22;20410;55.578;12.968;2022-08-11T17:51:47;25.60;99.90
34135;DHT22;20410;55.578;12.968;2022-08-11T17:54:34;25.50;99.90
34135;DHT22;20410;55.578;12.968;2022-08-11T17:57:20;25.50;99.90
34135;DHT22;20410;55.578;12.968;2022-08-11T18:00:06;25.40;99.90
34135;DHT22;20410;55.578;12.968;2022-08-11T18:02:32;25.30;99.90
34135;DHT22;20410;55.578;12.968;2022-08-11T18:05:19;25.20;99.90
34135;DHT22;20410;55.578;12.968;2022-08-11T18:07:47;25.10;99.90
34135;DHT22;20410;55.578;12.968;2022-08-11T18:10:33;25.00;99.90
34135;DHT22;20410;55.578;12.968;2022-08-11T18:13:21;24.90;99.90
34135;DHT22;20410;55.578;12.968;2022-08-11T18:16:06;24.80;99.90
34135;DHT22;20410;55.578;12.968;2022-08-11T18:18:51;24.60;99.90
34135;DHT22;20410;55.578;12.968;2022-08-11T18:21:37;24.50;99.90
34135;DHT22;20410;55.578;12.968;2022-08-11T18:24:23;24.40;99.90
34135;DHT22;20410;55.578;12.968;2022-08-11T18:27:10;24.30;99.90
34135;DHT22;20410;55.578;12.968;2022-08-11T18:29:57;24.20;99.90
34135;DHT22;20410;55.578;12.968;2022-08-11T18:32:43;24.10;99.90
34135;DHT22;20410;55.578;12.968;2022-08-11T18:35:31;23.90;99.90
34135;DHT22;20410;55.578;12.968;2022-08-11T18:38:17;23.90;99.90
34135;DHT22;20410;55.578;12.968;2022-08-11T18:41:04;23.80;99.90
34135;DHT22;20410;55.578;12.968;2022-08-11T18:43:50;23.80;99.90
34135;DHT22;20410;55.578;12.968;2022-08-11T18:46:42;23.70;99.90
34135;DHT22;20410;55.578;12.968;2022-08-11T18:49:33;23.60;99.90
34135;DHT22;20410;55.578;12.968;2022-08-11T18:52:18;23.50;99.90
34135;DHT22;20410;55.578;12.968;2022-08-11T18:55:08;23.50;99.90
34135;DHT22;20410;55.578;12.968;2022-08-11T18:57:55;23.50;99.90
34135;DHT22;20410;55.578;12.968;2022-08-11T19:00:41;23.40;99.90
34135;DHT22;20410;55.578;12.968;2022-08-11T19:03:26;23.30;99.90
34135;DHT22;20410;55.578;12.968;2022-08-11T19:06:12;23.30;99.90
34135;DHT22;20410;55.578;12.968;2022-08-11T19:09:00;23.20;99.90
34135;DHT22;20410;55.578;12.968;2022-08-11T19:11:46;23.10;99.90
34135;DHT22;20410;55.578;12.968;2022-08-11T19:14:31;23.10;99.90
34135;DHT22;20410;55.578;12.968;2022-08-11T19:17:17;23.00;99.90
34135;DHT22;20410;55.578;12.968;2022-08-11T19:20:04;23.00;99.90
34135;DHT22;20410;55.578;12.968;2022-08-11T19:22:51;22.90;99.90